createdAt,value
2019-06-18T00:00:11.490Z,981.5
2019-06-18T00:01:12.790Z,981.5
2019-06-18T00:02:14.065Z,981.5
2019-06-18T00:03:15.383Z,981.5
2019-06-18T00:04:16.708Z,981.5
2019-06-18T00:05:22.093Z,981.5
2019-06-18T00:06:26.401Z,981.6
2019-06-18T00:07:33.120Z,981.6
2019-06-18T00:08:36.913Z,981.6
2019-06-18T00:09:42.464Z,981.5
2019-06-18T00:10:46.848Z,981.5
2019-06-18T00:11:53.743Z,981.6
2019-06-18T00:13:00.669Z,981.6
2019-06-18T00:14:05.095Z,981.3
2019-06-18T00:15:11.078Z,981.5
2019-06-18T00:16:15.159Z,981.5
2019-06-18T00:17:20.763Z,981.5
2019-06-18T00:18:24.798Z,981.5
2019-06-18T00:19:31.202Z,981.5
2019-06-18T00:20:35.584Z,981.5
2019-06-18T00:21:41.457Z,981.5
2019-06-18T00:22:45.817Z,981.4
2019-06-18T00:23:50.920Z,981.4
2019-06-18T00:24:55.311Z,981.4
2019-06-18T00:26:01.099Z,981.4
2019-06-18T00:27:05.229Z,981.4
2019-06-18T00:28:10.332Z,981.4
2019-06-18T00:29:14.139Z,981.3
2019-06-18T00:30:22.485Z,981.3
2019-06-18T00:31:27.097Z,981.4
2019-06-18T00:32:32.583Z,981.3
2019-06-18T00:33:36.694Z,981.3
2019-06-18T00:34:43.040Z,981.3
2019-06-18T00:35:47.020Z,981.3
2019-06-18T00:36:52.831Z,981.3
2019-06-18T00:37:57.220Z,981.3
2019-06-18T00:39:00.991Z,981.4
2019-06-18T00:40:07.008Z,981.4
2019-06-18T00:41:13.113Z,981.4
2019-06-18T00:42:18.736Z,981.3
2019-06-18T00:43:22.485Z,981.3
2019-06-18T00:44:27.055Z,981.4
2019-06-18T00:45:30.983Z,981.3
2019-06-18T00:46:36.823Z,981.2
2019-06-18T00:47:40.962Z,981.3
2019-06-18T00:48:44.374Z,981.3
2019-06-18T00:49:48.315Z,981.3
2019-06-18T00:50:54.430Z,981.3
2019-06-18T00:51:59.026Z,981.2
2019-06-18T00:53:02.623Z,981.2
2019-06-18T00:54:08.410Z,981.2
2019-06-18T00:55:11.863Z,981.2
2019-06-18T00:56:17.081Z,981.2
2019-06-18T00:57:20.541Z,981.1
2019-06-18T00:58:26.092Z,981.2
2019-06-18T00:59:29.641Z,981.1
2019-06-18T01:00:33.567Z,981.1
2019-06-18T01:01:40.451Z,981.1
2019-06-18T01:02:46.540Z,981.2
2019-06-18T01:03:52.063Z,981.1
2019-06-18T01:05:00.715Z,981.1
2019-06-18T01:06:07.669Z,981
2019-06-18T01:07:11.762Z,981.2
2019-06-18T01:08:17.398Z,981.2
2019-06-18T01:09:21.226Z,981.1
2019-06-18T01:10:26.892Z,981.2
2019-06-18T01:11:30.692Z,981.2
2019-06-18T01:12:34.171Z,981.2
2019-06-18T01:13:38.954Z,981.1
2019-06-18T01:14:42.540Z,981.1
2019-06-18T01:15:48.634Z,981.1
2019-06-18T01:16:52.137Z,981.1
2019-06-18T01:17:57.339Z,981.1
2019-06-18T01:19:01.093Z,981.1
2019-06-18T01:20:06.835Z,981.1
2019-06-18T01:21:10.630Z,981.2
2019-06-18T01:22:14.200Z,981.1
2019-06-18T01:23:17.529Z,981.1
2019-06-18T01:24:23.196Z,981.2
2019-06-18T01:25:26.824Z,981.1
2019-06-18T01:26:32.758Z,981.1
2019-06-18T01:27:36.331Z,981.1
2019-06-18T01:28:39.801Z,981.1
2019-06-18T01:29:44.622Z,981.2
2019-06-18T01:30:47.961Z,981.1
2019-06-18T01:31:52.878Z,981.2
2019-06-18T01:32:56.545Z,981.2
2019-06-18T01:34:00.038Z,981.2
2019-06-18T01:35:04.332Z,981.2
2019-06-18T01:36:07.918Z,981.1
2019-06-18T01:37:12.787Z,981.1
2019-06-18T01:38:16.167Z,981.1
2019-06-18T01:39:19.569Z,981.1
2019-06-18T01:40:24.708Z,981.1
2019-06-18T01:41:33.232Z,981.1
2019-06-18T01:42:36.759Z,981.1
2019-06-18T01:43:42.375Z,981
2019-06-18T01:44:45.982Z,981.1
2019-06-18T01:45:49.533Z,981.1
2019-06-18T01:46:58.700Z,981.1
2019-06-18T01:48:04.010Z,981.1
2019-06-18T01:49:07.532Z,981.1
2019-06-18T01:50:11.083Z,981.1
2019-06-18T01:51:15.382Z,981.1
2019-06-18T01:52:18.651Z,981
2019-06-18T01:53:24.283Z,981
2019-06-18T01:54:27.515Z,981.1
2019-06-18T01:55:30.571Z,981.1
2019-06-18T01:56:34.253Z,981.1
2019-06-18T01:57:37.654Z,981.1
2019-06-18T01:58:42.835Z,981.1
2019-06-18T01:59:46.168Z,981.1
2019-06-18T02:00:52.474Z,981.1
2019-06-18T02:01:56.898Z,981
2019-06-18T02:03:02.713Z,981
2019-06-18T02:04:06.604Z,981.1
2019-06-18T02:05:12.220Z,981
2019-06-18T02:06:16.281Z,981
2019-06-18T02:07:20.859Z,981
2019-06-18T02:08:26.855Z,981
2019-06-18T02:09:33.038Z,981.1
2019-06-18T02:10:35.835Z,981
2019-06-18T02:11:37.233Z,981
2019-06-18T02:12:38.829Z,981
2019-06-18T02:13:42.391Z,981.1
2019-06-18T02:14:44.244Z,981
2019-06-18T02:15:45.547Z,980.9
2019-06-18T02:16:57.306Z,981
2019-06-18T02:17:58.970Z,981.1
2019-06-18T02:19:02.610Z,981.1
2019-06-18T02:20:04.550Z,981
2019-06-18T02:21:05.853Z,981
2019-06-18T02:22:08.345Z,981.1
2019-06-18T02:23:09.685Z,980.9
2019-06-18T02:24:13.650Z,981.1
2019-06-18T02:25:14.943Z,981
2019-06-18T02:26:16.207Z,981
2019-06-18T02:27:17.507Z,981
2019-06-18T02:28:18.815Z,981
2019-06-18T02:29:20.155Z,981
2019-06-18T02:30:25.032Z,981
2019-06-18T02:31:26.306Z,981
2019-06-18T02:32:27.591Z,981
2019-06-18T02:33:28.878Z,981
2019-06-18T02:34:32.901Z,981
2019-06-18T02:35:34.386Z,981
2019-06-18T02:36:35.672Z,981
2019-06-18T02:37:36.947Z,981
2019-06-18T02:38:38.229Z,981
2019-06-18T02:39:39.578Z,981
2019-06-18T02:40:43.433Z,981
2019-06-18T02:41:44.787Z,981
2019-06-18T02:42:46.260Z,981
2019-06-18T02:43:47.519Z,981
2019-06-18T02:44:48.817Z,980.9
2019-06-18T02:45:52.993Z,980.9
2019-06-18T02:47:12.587Z,980.9
2019-06-18T02:48:14.949Z,980.9
2019-06-18T02:49:16.361Z,981
2019-06-18T02:50:17.679Z,981
2019-06-18T02:51:18.967Z,981
2019-06-18T02:52:22.467Z,980.9
2019-06-18T02:53:23.875Z,980.9
2019-06-18T02:54:25.156Z,981
2019-06-18T02:55:26.497Z,981
2019-06-18T02:56:27.800Z,981.1
2019-06-18T02:57:29.067Z,981.1
2019-06-18T02:58:32.828Z,981
2019-06-18T02:59:34.285Z,980.9
2019-06-18T03:00:35.609Z,981
2019-06-18T03:01:36.905Z,981
2019-06-18T03:02:38.190Z,981.1
2019-06-18T03:03:39.486Z,981.1
2019-06-18T03:04:43.244Z,981.1
2019-06-18T03:05:44.809Z,981
2019-06-18T03:06:46.100Z,981.1
2019-06-18T03:07:47.368Z,981
2019-06-18T03:08:48.690Z,981.1
2019-06-18T03:09:52.142Z,980.9
2019-06-18T03:10:53.639Z,981
2019-06-18T03:11:54.909Z,981
2019-06-18T03:12:56.134Z,981
2019-06-18T03:13:57.464Z,981
2019-06-18T03:14:58.735Z,981
2019-06-18T03:16:02.285Z,981
2019-06-18T03:17:03.930Z,981
2019-06-18T03:18:05.341Z,981
2019-06-18T03:19:06.619Z,981
2019-06-18T03:20:07.931Z,981
2019-06-18T03:21:10.712Z,981
2019-06-18T03:22:16.517Z,981
2019-06-18T03:23:17.783Z,981
2019-06-18T03:24:19.044Z,981
2019-06-18T03:25:20.314Z,981
2019-06-18T03:26:23.433Z,981
2019-06-18T03:27:24.719Z,980.9
2019-06-18T03:28:26.002Z,981
2019-06-18T03:29:27.267Z,981
2019-06-18T03:30:28.542Z,980.9
2019-06-18T03:31:29.871Z,981
2019-06-18T03:32:35.591Z,980.9
2019-06-18T03:33:36.873Z,981
2019-06-18T03:34:38.150Z,981
2019-06-18T03:35:39.464Z,980.9
2019-06-18T03:36:43.407Z,980.9
2019-06-18T03:37:44.712Z,980.9
2019-06-18T03:38:45.981Z,980.9
2019-06-18T03:39:47.246Z,980.9
2019-06-18T03:40:48.552Z,980.9
2019-06-18T03:41:49.877Z,980.9
2019-06-18T03:42:53.401Z,980.9
2019-06-18T03:43:54.687Z,980.9
2019-06-18T03:44:56.025Z,980.8
2019-06-18T03:45:57.335Z,980.6
2019-06-18T03:46:58.655Z,980.9
2019-06-18T03:48:02.334Z,980.9
2019-06-18T03:49:03.864Z,980.9
2019-06-18T03:50:05.813Z,980.9
2019-06-18T03:51:07.106Z,980.9
2019-06-18T03:52:08.416Z,980.9
2019-06-18T03:53:09.733Z,980.9
2019-06-18T03:54:13.931Z,980.9
2019-06-18T03:55:15.222Z,980.9
2019-06-18T03:56:16.531Z,980.8
2019-06-18T03:57:17.861Z,980.9
2019-06-18T03:58:19.148Z,980.9
2019-06-18T03:59:22.980Z,980.9
2019-06-18T04:00:24.255Z,980.9
2019-06-18T04:01:25.517Z,981
2019-06-18T04:02:26.823Z,981
2019-06-18T04:03:28.124Z,981
2019-06-18T04:04:29.383Z,980.9
2019-06-18T04:05:33.865Z,981
2019-06-18T04:06:35.137Z,981
2019-06-18T04:07:36.437Z,980.9
2019-06-18T04:08:37.733Z,981
2019-06-18T04:09:39.038Z,981
2019-06-18T04:10:40.341Z,981
2019-06-18T04:11:43.941Z,980.9
2019-06-18T04:12:45.272Z,981
2019-06-18T04:13:46.541Z,980.9
2019-06-18T04:14:47.827Z,981
2019-06-18T04:15:49.106Z,980.8
2019-06-18T04:16:53.008Z,981
2019-06-18T04:18:06.827Z,980.7
2019-06-18T04:19:08.406Z,980.9
2019-06-18T04:20:09.670Z,980.9
2019-06-18T04:21:13.704Z,981
2019-06-18T04:22:14.979Z,981
2019-06-18T04:23:22.562Z,981
2019-06-18T04:24:23.986Z,981
2019-06-18T04:25:25.292Z,980.9
2019-06-18T04:26:26.571Z,980.9
2019-06-18T04:27:27.858Z,981
2019-06-18T04:28:29.387Z,980.9
2019-06-18T04:29:34.232Z,981
2019-06-18T04:30:35.517Z,981
2019-06-18T04:31:36.811Z,981
2019-06-18T04:32:38.120Z,981
2019-06-18T04:33:39.421Z,981
2019-06-18T04:34:43.205Z,981
2019-06-18T04:35:44.649Z,981.1
2019-06-18T04:36:45.942Z,981
2019-06-18T04:37:47.257Z,981.1
2019-06-18T04:38:48.582Z,981.1
2019-06-18T04:39:55.174Z,981
2019-06-18T04:40:56.567Z,981.1
2019-06-18T04:41:57.863Z,981
2019-06-18T04:42:59.166Z,981
2019-06-18T04:44:03.200Z,981.1
2019-06-18T04:45:05.046Z,981.1
2019-06-18T04:46:06.409Z,981
2019-06-18T04:47:07.721Z,981.1
2019-06-18T04:48:27.573Z,981.1
2019-06-18T04:49:29.089Z,981
2019-06-18T04:50:32.768Z,981
2019-06-18T04:51:34.212Z,981
2019-06-18T04:52:35.517Z,981
2019-06-18T04:53:36.800Z,981
2019-06-18T04:54:38.118Z,980.9
2019-06-18T04:55:39.435Z,980.9
2019-06-18T04:56:43.166Z,980.9
2019-06-18T04:57:44.687Z,980.9
2019-06-18T04:58:45.983Z,980.9
2019-06-18T04:59:47.330Z,980.9
2019-06-18T05:00:48.668Z,980.9
2019-06-18T05:01:49.934Z,980.8
2019-06-18T05:02:57.304Z,980.8
2019-06-18T05:03:58.737Z,980.9
2019-06-18T05:05:00.062Z,980.9
2019-06-18T05:06:04.920Z,981
2019-06-18T05:07:06.195Z,981
2019-06-18T05:08:07.715Z,981.1
2019-06-18T05:09:09.001Z,981.1
2019-06-18T05:10:12.924Z,981.1
2019-06-18T05:11:14.193Z,981.2
2019-06-18T05:12:15.569Z,981.2
2019-06-18T05:13:16.866Z,981.2
2019-06-18T05:14:18.159Z,981.3
2019-06-18T05:15:19.550Z,981.1
2019-06-18T05:16:23.058Z,981.3
2019-06-18T05:17:25.658Z,981.4
2019-06-18T05:18:40.472Z,981.4
2019-06-18T05:19:44.524Z,981.4
2019-06-18T05:20:45.910Z,981.5
2019-06-18T05:21:47.210Z,981.5
2019-06-18T05:22:48.504Z,981.5
2019-06-18T05:23:49.814Z,981.5
2019-06-18T05:24:53.890Z,981.6
2019-06-18T05:25:55.238Z,981.5
2019-06-18T05:26:56.536Z,981.5
2019-06-18T05:27:57.821Z,981.5
2019-06-18T05:28:59.140Z,981.5
2019-06-18T05:30:03.507Z,981.6
2019-06-18T05:31:05.374Z,981.5
2019-06-18T05:32:06.665Z,981.7
2019-06-18T05:33:08.045Z,981.8
2019-06-18T05:34:09.319Z,981.8
2019-06-18T05:35:13.212Z,981.8
2019-06-18T05:36:14.564Z,981.9
2019-06-18T05:37:15.846Z,981.9
2019-06-18T05:38:17.132Z,982
2019-06-18T05:39:18.418Z,982
2019-06-18T05:40:19.724Z,982
2019-06-18T05:41:23.557Z,982
2019-06-18T05:42:24.872Z,982
2019-06-18T05:43:26.188Z,982
2019-06-18T05:44:27.498Z,982.1
2019-06-18T05:45:28.804Z,982.1
2019-06-18T05:46:32.749Z,982.1
2019-06-18T05:47:34.662Z,982
2019-06-18T05:48:54.488Z,982
2019-06-18T05:49:56.935Z,981.9
2019-06-18T05:50:58.235Z,981.9
2019-06-18T05:51:59.572Z,981.9
2019-06-18T05:53:04.081Z,981.9
2019-06-18T05:54:05.388Z,982
2019-06-18T05:55:06.674Z,981.9
2019-06-18T05:56:07.952Z,982
2019-06-18T05:57:09.275Z,981.9
2019-06-18T05:58:13.540Z,981.9
2019-06-18T05:59:14.842Z,981.8
2019-06-18T06:00:16.142Z,982
2019-06-18T06:01:17.430Z,982
2019-06-18T06:02:18.781Z,982.1
2019-06-18T06:03:20.124Z,982.1
2019-06-18T06:04:24.025Z,982
2019-06-18T06:05:25.303Z,982
2019-06-18T06:06:26.680Z,982
2019-06-18T06:07:28.108Z,982
2019-06-18T06:08:29.420Z,982.1
2019-06-18T06:09:33.612Z,982.1
2019-06-18T06:10:34.942Z,982.2
2019-06-18T06:11:36.618Z,982.3
2019-06-18T06:12:37.943Z,982.3
2019-06-18T06:13:39.257Z,982.3
2019-06-18T06:14:40.557Z,982.3
2019-06-18T06:15:44.297Z,982.4
2019-06-18T06:16:45.578Z,982.3
2019-06-18T06:17:46.942Z,982.3
2019-06-18T06:18:48.219Z,982.2
2019-06-18T06:19:49.512Z,982.3
2019-06-18T06:20:52.806Z,982.3
2019-06-18T06:21:54.644Z,982.2
2019-06-18T06:22:55.955Z,982.2
2019-06-18T06:23:57.271Z,982.2
2019-06-18T06:24:58.939Z,982.2
2019-06-18T06:26:00.268Z,982.2
2019-06-18T06:27:03.663Z,982.1
2019-06-18T06:28:05.307Z,982.1
2019-06-18T06:29:06.598Z,982.1
2019-06-18T06:30:07.896Z,982.2
2019-06-18T06:31:09.204Z,982.2
2019-06-18T06:32:13.029Z,982.2
2019-06-18T06:33:14.522Z,982.2
2019-06-18T06:34:15.815Z,982.2
2019-06-18T06:35:17.114Z,982.1
2019-06-18T06:36:18.394Z,982
2019-06-18T06:37:21.935Z,981.9
2019-06-18T06:38:24.049Z,982
2019-06-18T06:39:25.355Z,982.1
2019-06-18T06:40:27.106Z,982.1
2019-06-18T06:41:28.400Z,982
2019-06-18T06:42:32.187Z,982.1
2019-06-18T06:43:33.967Z,982.1
2019-06-18T06:44:35.286Z,982.2
2019-06-18T06:45:36.590Z,982.1
2019-06-18T06:46:37.898Z,982.2
2019-06-18T06:47:39.188Z,981.9
2019-06-18T06:48:42.674Z,982
2019-06-18T06:49:44.359Z,982.2
2019-06-18T06:50:45.659Z,982.2
2019-06-18T06:51:46.943Z,982.3
2019-06-18T06:52:48.236Z,982.4
2019-06-18T06:53:49.553Z,982.4
2019-06-18T06:54:53.087Z,982.3
2019-06-18T06:55:54.404Z,982.4
2019-06-18T06:56:55.699Z,982.3
2019-06-18T06:57:56.993Z,982.3
2019-06-18T06:58:58.343Z,982.2
2019-06-18T06:59:59.661Z,982.4
2019-06-18T07:01:04.135Z,982.4
2019-06-18T07:02:05.439Z,982.4
2019-06-18T07:03:06.725Z,982.3
2019-06-18T07:04:08.085Z,982.4
2019-06-18T07:05:09.384Z,982.4
2019-06-18T07:06:13.165Z,982.4
2019-06-18T07:07:14.587Z,982.3
2019-06-18T07:08:15.907Z,982.3
2019-06-18T07:09:17.216Z,982.3
2019-06-18T07:10:18.557Z,982.3
2019-06-18T07:11:19.963Z,982.1
2019-06-18T07:12:24.595Z,982.2
2019-06-18T07:13:25.882Z,982.3
2019-06-18T07:14:27.243Z,982.3
2019-06-18T07:15:28.579Z,982.3
2019-06-18T07:16:29.863Z,982.2
2019-06-18T07:17:34.037Z,982.3
2019-06-18T07:18:35.355Z,982.3
2019-06-18T07:19:54.319Z,982.4
2019-06-18T07:20:58.029Z,982.3
2019-06-18T07:21:59.295Z,982.2
2019-06-18T07:23:02.950Z,982.3
2019-06-18T07:24:04.517Z,982.4
2019-06-18T07:25:05.861Z,982.3
2019-06-18T07:26:07.135Z,982.3
2019-06-18T07:27:08.427Z,982.3
2019-06-18T07:28:12.796Z,982.4
2019-06-18T07:29:15.176Z,982.3
2019-06-18T07:30:16.487Z,982.4
2019-06-18T07:31:17.808Z,982.3
2019-06-18T07:32:19.099Z,982.3
2019-06-18T07:33:20.373Z,982.4
2019-06-18T07:34:24.739Z,982.5
2019-06-18T07:35:33.670Z,982.4
2019-06-18T07:36:35.222Z,982.4
2019-06-18T07:37:36.525Z,982.4
2019-06-18T07:38:37.835Z,982.3
2019-06-18T07:39:39.155Z,982.4
2019-06-18T07:40:42.991Z,982.3
2019-06-18T07:41:44.451Z,982.2
2019-06-18T07:42:45.746Z,982.3
2019-06-18T07:43:47.053Z,982.3
2019-06-18T07:44:54.235Z,982.4
2019-06-18T07:45:56.063Z,982.4
2019-06-18T07:46:57.354Z,982.4
2019-06-18T07:47:58.653Z,982.4
2019-06-18T07:49:02.257Z,982.4
2019-06-18T07:50:18.281Z,982.4
2019-06-18T07:51:24.461Z,982.1
2019-06-18T07:52:25.731Z,982
2019-06-18T07:53:27.032Z,982
2019-06-18T07:54:28.286Z,982.1
2019-06-18T07:55:29.565Z,982
2019-06-18T07:56:33.806Z,982
2019-06-18T07:57:35.113Z,981.9
2019-06-18T07:58:36.405Z,981.9
2019-06-18T07:59:37.701Z,982
2019-06-18T08:00:39.211Z,981.9
2019-06-18T08:01:42.863Z,981.9
2019-06-18T08:02:44.799Z,981.9
2019-06-18T08:03:46.100Z,981.9
2019-06-18T08:04:47.371Z,981.9
2019-06-18T08:05:48.657Z,981.9
2019-06-18T08:06:49.948Z,981.9
2019-06-18T08:07:53.725Z,981.9
2019-06-18T08:08:54.999Z,982.1
2019-06-18T08:09:56.261Z,982.1
2019-06-18T08:10:57.531Z,982.1
2019-06-18T08:11:58.851Z,982.2
2019-06-18T08:13:02.375Z,982.1
2019-06-18T08:14:04.205Z,981.9
2019-06-18T08:15:05.480Z,982.2
2019-06-18T08:16:06.764Z,982.2
2019-06-18T08:17:08.060Z,982.1
2019-06-18T08:18:09.369Z,982.1
2019-06-18T08:19:13.084Z,982
2019-06-18T08:20:38.338Z,982
2019-06-18T08:21:39.917Z,982
2019-06-18T08:22:44.121Z,982
2019-06-18T08:23:45.431Z,982
2019-06-18T08:24:46.701Z,982.1
2019-06-18T08:25:48.006Z,982.2
2019-06-18T08:26:49.339Z,982.1
2019-06-18T08:27:53.452Z,982
2019-06-18T08:28:56.834Z,982.1
2019-06-18T08:29:58.202Z,982.1
2019-06-18T08:30:59.515Z,982.1
2019-06-18T08:32:05.987Z,982.1
2019-06-18T08:33:07.403Z,982.1
2019-06-18T08:34:08.664Z,982
2019-06-18T08:35:12.557Z,982
2019-06-18T08:36:14.096Z,982
2019-06-18T08:37:15.343Z,982
2019-06-18T08:38:16.969Z,982
2019-06-18T08:39:18.233Z,982.1
2019-06-18T08:40:22.182Z,982
2019-06-18T08:41:23.684Z,982.1
2019-06-18T08:42:24.958Z,982
2019-06-18T08:43:26.338Z,982
2019-06-18T08:44:27.594Z,982
2019-06-18T08:45:28.933Z,982.1
2019-06-18T08:46:32.516Z,982
2019-06-18T08:47:34.041Z,982
2019-06-18T08:48:35.363Z,982.1
2019-06-18T08:49:39.696Z,982.1
2019-06-18T08:50:53.864Z,981.9
2019-06-18T08:51:58.447Z,981.9
2019-06-18T08:52:59.747Z,981.9
2019-06-18T08:54:03.344Z,981.9
2019-06-18T08:55:04.661Z,981.8
2019-06-18T08:56:05.992Z,981.8
2019-06-18T08:57:07.352Z,981.8
2019-06-18T08:58:08.660Z,981.9
2019-06-18T08:59:09.986Z,981.7
2019-06-18T09:00:13.443Z,981.7
2019-06-18T09:01:14.733Z,981.7
2019-06-18T09:02:16.026Z,981.6
2019-06-18T09:03:29.231Z,981.5
2019-06-18T09:04:33.066Z,981.6
2019-06-18T09:05:34.528Z,981.6
2019-06-18T09:06:35.824Z,981.4
2019-06-18T09:07:37.123Z,981.4
2019-06-18T09:08:38.401Z,981.4
2019-06-18T09:09:42.171Z,981.4
2019-06-18T09:10:46.083Z,981.3
2019-06-18T09:11:47.383Z,981.4
2019-06-18T09:12:48.658Z,981.4
2019-06-18T09:13:49.959Z,981.3
2019-06-18T09:14:53.157Z,981.3
2019-06-18T09:15:54.447Z,981.3
2019-06-18T09:16:55.714Z,981.2
2019-06-18T09:17:57.020Z,981.3
2019-06-18T09:18:58.310Z,981.2
2019-06-18T09:19:59.649Z,981.2
2019-06-18T09:21:08.705Z,981.4
2019-06-18T09:22:10.035Z,981.3
2019-06-18T09:23:13.613Z,981.2
2019-06-18T09:24:14.887Z,981.2
2019-06-18T09:25:16.251Z,981.2
2019-06-18T09:26:17.558Z,981.2
2019-06-18T09:27:18.824Z,981.1
2019-06-18T09:28:20.131Z,981.1
2019-06-18T09:29:23.572Z,981
2019-06-18T09:30:24.899Z,981.1
2019-06-18T09:31:26.212Z,981
2019-06-18T09:32:27.520Z,981.1
2019-06-18T09:33:28.846Z,981
2019-06-18T09:34:32.973Z,980.9
2019-06-18T09:35:34.527Z,981
2019-06-18T09:36:35.830Z,981
2019-06-18T09:37:37.119Z,981
2019-06-18T09:38:38.437Z,980.9
2019-06-18T09:39:39.738Z,980.9
2019-06-18T09:40:43.323Z,980.8
2019-06-18T09:41:44.595Z,981.1
2019-06-18T09:42:45.880Z,981
2019-06-18T09:43:47.136Z,980.9
2019-06-18T09:44:48.445Z,981
2019-06-18T09:45:49.751Z,980.8
2019-06-18T09:46:53.389Z,980.8
2019-06-18T09:47:54.903Z,980.8
2019-06-18T09:48:56.207Z,980.8
2019-06-18T09:49:57.500Z,980.7
2019-06-18T09:50:58.839Z,980.7
2019-06-18T09:52:02.590Z,980.7
2019-06-18T09:53:03.972Z,980.7
2019-06-18T09:54:05.262Z,980.7
2019-06-18T09:55:06.540Z,980.7
2019-06-18T09:56:07.870Z,980.6
2019-06-18T09:57:09.172Z,980.7
2019-06-18T09:58:13.124Z,980.7
2019-06-18T09:59:14.416Z,980.7
2019-06-18T10:00:15.703Z,980.7
2019-06-18T10:01:17.031Z,980.7
2019-06-18T10:02:18.310Z,980.6
2019-06-18T10:03:19.594Z,980.5
2019-06-18T10:04:22.880Z,980.6
2019-06-18T10:05:24.856Z,980.6
2019-06-18T10:06:26.191Z,980.5
2019-06-18T10:07:27.491Z,980.6
2019-06-18T10:08:28.830Z,980.6
2019-06-18T10:09:30.375Z,980.6
2019-06-18T10:10:34.246Z,980.6
2019-06-18T10:11:35.563Z,980.7
2019-06-18T10:12:36.840Z,980.6
2019-06-18T10:13:38.105Z,980.6
2019-06-18T10:14:39.386Z,980.5
2019-06-18T10:15:42.807Z,980.5
2019-06-18T10:16:44.678Z,980.6
2019-06-18T10:17:48.828Z,980.4
2019-06-18T10:18:53.125Z,980.5
2019-06-18T10:19:54.580Z,980.5
2019-06-18T10:20:55.953Z,980.4
2019-06-18T10:21:57.305Z,980.4
2019-06-18T10:22:58.598Z,980.4
2019-06-18T10:24:02.200Z,980.4
2019-06-18T10:25:04.304Z,980.2
2019-06-18T10:26:05.574Z,980.2
2019-06-18T10:27:06.914Z,980.2
2019-06-18T10:28:08.202Z,980.2
2019-06-18T10:29:35.956Z,980.2
2019-06-18T10:30:53.068Z,980.3
2019-06-18T10:31:54.611Z,980.3
2019-06-18T10:32:56.273Z,980.2
2019-06-18T10:33:57.592Z,980.1
2019-06-18T10:34:58.866Z,980.1
2019-06-18T10:36:02.602Z,980.1
2019-06-18T10:37:06.244Z,980.1
2019-06-18T10:38:07.558Z,980.1
2019-06-18T10:39:08.863Z,980.2
2019-06-18T10:40:10.165Z,980.1
2019-06-18T10:41:17.284Z,980.1
2019-06-18T10:42:19.900Z,980
2019-06-18T10:43:23.637Z,980.1
2019-06-18T10:44:24.985Z,980
2019-06-18T10:45:26.321Z,980.1
2019-06-18T10:46:27.608Z,980
2019-06-18T10:47:28.940Z,979.9
2019-06-18T10:48:30.272Z,980
2019-06-18T10:49:34.547Z,980
2019-06-18T10:50:36.110Z,980
2019-06-18T10:51:59.653Z,980
2019-06-18T10:53:05.466Z,980.1
2019-06-18T10:54:06.776Z,980
2019-06-18T10:55:08.084Z,980
2019-06-18T10:56:09.341Z,980
2019-06-18T10:57:12.964Z,980
2019-06-18T10:58:14.624Z,979.9
2019-06-18T10:59:15.966Z,979.9
2019-06-18T11:00:17.273Z,979.8
2019-06-18T11:01:18.920Z,979.9
2019-06-18T11:02:22.677Z,979.9
2019-06-18T11:03:24.239Z,979.8
2019-06-18T11:04:25.558Z,979.8
2019-06-18T11:05:26.860Z,979.8
2019-06-18T11:06:32.840Z,979.9
2019-06-18T11:07:34.367Z,979.9
2019-06-18T11:08:35.818Z,979.9
2019-06-18T11:09:37.172Z,979.9
2019-06-18T11:10:38.513Z,979.9
2019-06-18T11:11:39.804Z,979.8
2019-06-18T11:12:44.221Z,979.8
2019-06-18T11:13:45.494Z,979.7
2019-06-18T11:14:46.824Z,979.7
2019-06-18T11:15:48.150Z,979.7
2019-06-18T11:16:49.484Z,979.6
2019-06-18T11:17:52.946Z,979.6
2019-06-18T11:18:54.728Z,979.5
2019-06-18T11:19:56.073Z,979.5
2019-06-18T11:20:57.364Z,979.6
2019-06-18T11:22:14.265Z,979.6
2019-06-18T11:23:37.827Z,979.6
2019-06-18T11:24:39.364Z,979.6
2019-06-18T11:25:40.748Z,979.7
2019-06-18T11:26:44.740Z,979.6
2019-06-18T11:27:46.030Z,979.6
2019-06-18T11:28:47.332Z,979.6
2019-06-18T11:29:48.634Z,979.6
2019-06-18T11:30:49.964Z,979.7
2019-06-18T11:31:53.354Z,979.6
2019-06-18T11:32:54.627Z,979.7
2019-06-18T11:33:55.928Z,979.6
2019-06-18T11:34:57.206Z,979.5
2019-06-18T11:35:58.550Z,979.5
2019-06-18T11:37:02.696Z,979.5
2019-06-18T11:38:04.677Z,979.3
2019-06-18T11:39:05.968Z,979.5
2019-06-18T11:40:08.856Z,979.6
2019-06-18T11:41:10.185Z,979.5
2019-06-18T11:42:13.718Z,979.6
2019-06-18T11:43:15.012Z,979.6
2019-06-18T11:44:16.300Z,979.5
2019-06-18T11:45:17.660Z,979.5
2019-06-18T11:46:18.968Z,979.6
2019-06-18T11:47:22.852Z,979.6
2019-06-18T11:48:24.213Z,979.5
2019-06-18T11:49:25.484Z,979.4
2019-06-18T11:50:26.786Z,979.5
2019-06-18T11:51:28.176Z,979.5
2019-06-18T11:52:33.577Z,979.5
2019-06-18T11:53:34.952Z,979.4
2019-06-18T11:54:36.241Z,979.5
2019-06-18T11:55:37.512Z,979.4
2019-06-18T11:56:38.826Z,979.4
2019-06-18T11:57:42.335Z,979.5
2019-06-18T11:58:43.830Z,979.5
2019-06-18T11:59:45.117Z,979.4
2019-06-18T12:00:46.409Z,979.4
2019-06-18T12:01:47.773Z,979.4
2019-06-18T12:02:49.075Z,979.3
2019-06-18T12:03:53.443Z,979.3
2019-06-18T12:04:54.741Z,979.3
2019-06-18T12:05:56.050Z,979.4
2019-06-18T12:06:58.207Z,979.3
2019-06-18T12:07:59.502Z,979
2019-06-18T12:09:03.370Z,979.3
2019-06-18T12:10:04.666Z,979.2
2019-06-18T12:11:05.976Z,979.2
2019-06-18T12:12:07.298Z,979.3
2019-06-18T12:13:08.579Z,979.3
2019-06-18T12:14:12.262Z,979.3
2019-06-18T12:15:14.019Z,979.3
2019-06-18T12:16:15.350Z,979.4
2019-06-18T12:17:16.718Z,979.3
2019-06-18T12:18:18.018Z,979.2
2019-06-18T12:19:19.462Z,979.2
2019-06-18T12:20:20.914Z,979.2
2019-06-18T12:21:22.221Z,979.2
2019-06-18T12:22:23.758Z,979.2
2019-06-18T12:23:25.260Z,979.1
2019-06-18T12:24:26.511Z,979
2019-06-18T12:25:27.805Z,978.9
2019-06-18T12:26:29.092Z,978.9
2019-06-18T12:27:30.418Z,978.9
2019-06-18T12:28:33.701Z,978.9
2019-06-18T12:29:34.988Z,978.9
2019-06-18T12:30:36.317Z,978.9
2019-06-18T12:31:37.630Z,978.9
2019-06-18T12:32:54.748Z,978.9
2019-06-18T12:33:56.394Z,978.9
2019-06-18T12:34:57.725Z,978.9
2019-06-18T12:35:59.018Z,978.9
2019-06-18T12:37:02.786Z,978.8
2019-06-18T12:38:04.579Z,978.8
2019-06-18T12:39:05.864Z,978.7
2019-06-18T12:40:07.159Z,978.8
2019-06-18T12:41:08.436Z,978.8
2019-06-18T12:42:12.249Z,978.8
2019-06-18T12:43:14.073Z,978.8
2019-06-18T12:44:15.605Z,978.9
2019-06-18T12:45:17.040Z,978.9
2019-06-18T12:46:18.329Z,978.9
2019-06-18T12:47:19.665Z,978.9
2019-06-18T12:48:24.417Z,978.8
2019-06-18T12:49:25.855Z,978.8
2019-06-18T12:50:27.142Z,978.9
2019-06-18T12:51:28.428Z,978.9
2019-06-18T12:52:32.425Z,978.9
2019-06-18T12:53:33.891Z,979
2019-06-18T12:54:35.188Z,978.9
2019-06-18T12:55:36.463Z,978.8
2019-06-18T12:56:37.765Z,978.8
2019-06-18T12:57:39.079Z,978.7
2019-06-18T12:58:42.860Z,978.6
2019-06-18T12:59:44.650Z,978.6
2019-06-18T13:00:45.934Z,978.6
2019-06-18T13:01:47.202Z,978.6
2019-06-18T13:02:48.491Z,978.7
2019-06-18T13:03:49.816Z,978.7
2019-06-18T13:04:53.980Z,978.7
2019-06-18T13:05:55.604Z,978.7
2019-06-18T13:07:00.322Z,978.6
2019-06-18T13:08:04.159Z,978.7
2019-06-18T13:09:05.483Z,978.6
2019-06-18T13:10:06.789Z,978.4
2019-06-18T13:11:08.062Z,978.5
2019-06-18T13:12:09.359Z,978.6
2019-06-18T13:13:13.698Z,978.6
2019-06-18T13:14:15.327Z,978.5
2019-06-18T13:15:16.626Z,978.6
2019-06-18T13:16:17.928Z,978.5
2019-06-18T13:17:19.260Z,978.4
2019-06-18T13:18:20.537Z,978.5
2019-06-18T13:19:23.813Z,978.5
2019-06-18T13:20:25.096Z,978.5
2019-06-18T13:21:26.429Z,978.4
2019-06-18T13:22:27.723Z,978.4
2019-06-18T13:23:32.911Z,978.4
2019-06-18T13:24:36.559Z,978.4
2019-06-18T13:25:37.861Z,978.4
2019-06-18T13:26:39.156Z,978.3
2019-06-18T13:27:40.588Z,978.4
2019-06-18T13:28:43.903Z,978.4
2019-06-18T13:29:45.271Z,978.4
2019-06-18T13:30:46.555Z,978.5
2019-06-18T13:31:47.844Z,978.5
2019-06-18T13:32:49.137Z,978.5
2019-06-18T13:33:53.112Z,978.4
2019-06-18T13:34:54.595Z,978.5
2019-06-18T13:35:55.899Z,978.5
2019-06-18T13:36:57.209Z,978.4
2019-06-18T13:37:58.530Z,978.3
2019-06-18T13:38:59.823Z,978.4